Mc Allen Miller International Airport
KMFE : now visible

Airfield :











YOU CAN JOIN US ON...

 
LOGIN :

Register | Disclaimer

   EN    FR    IT 

 









Legend :    VFR   Marginal VFR   IFR   Intensive IFR   Very Intensive IFR
Visi :
Ceiling :
>= 8 km
>= 3000ft
5 to 8 km
1000 to 3000 ft
1500m to 5 km
500 to 1000 ft
800 to 1500m
200 to 500 ft
< 800m
< 200 ft
Symbols :   Thunderstorms  Fog  Heavy snow  Heavy precipitations  Wind > 20 kt






- Airport Elevation : 107 ft
- IATA code : MFE


KMFE - Mc Allen Miller International

CURRENT METAR :
  • 280653Z AUTO 00000KT 4SM BR CLR 17/17 A2995 RMK AO2 SLP139 T01720167

EXPIRED METARs :
  • 280649Z AUTO 00000KT 2SM BR CLR 17/17 A2995 RMK AO2
  • 280553Z 00000KT 8SM CLR 17/17 A2995 RMK AO2 SLP141 T01720167 10222 20167 402780089 51006
  • 280453Z 00000KT 8SM CLR 17/17 A2995 RMK AO2 SLP140 T01720167

TAF KMFE
Valid from the 28 at 06:00 until the 29 at 06:00 UTC


280529Z 2806/2906 VRB03KT 6SM BR SKC
FM280700 00000KT 1/4SM FG OVC003
FM281600 04004KT 2SM BR BKN010
FM281800 12005KT P6SM SCT035
FM290400 14006KT P6SM OVC015
KZHU FIR / North America



MET'MAP, your aeronautical weather chart ! - Copyright ORBIFLY December 2007 - Disclaimer

ORBIFLY MET'MAP TEAM :

Programming & Development : Alexandra Zaïnal
Original concept : Baudouin d'Aumeries
Technical & hardware support : Manuel Goepfert
Assistance : Marc-Olivier Méhu




SOURCES & CREDITS :

   NOAA       Earth
Advisory